PDT,Max TemperatureF,Mean TemperatureF,Min TemperatureF,Max Dew PointF,MeanDew PointF,Min DewpointF,Max Humidity, Mean Humidity, Min Humidity, Max Sea Level PressureIn, Mean Sea Level PressureIn, Min Sea Level PressureIn, Max VisibilityMiles, Mean VisibilityMiles, Min VisibilityMiles, Max Wind SpeedMPH, Mean Wind SpeedMPH, Max Gust SpeedMPH,PrecipitationIn, CloudCover, Events, WindDirDegrees
2013-4-1,64,55,46,52,50,47,100,82,63,30.14,30.09,30.04,10,6,0,10,3,13,0.01,7,Fog-Rain,239
2013-4-2,68,56,43,55,46,43,100,82,63,30.19,30.14,30.07,10,4,0,14,4,16,0.00,5,Fog,163
2013-4-3,74,61,48,56,48,46,100,75,49,30.14,30.07,29.96,10,6,0,13,4,16,0.00,6,Fog,172
2013-4-4,59,54,49,55,51,46,100,93,86,30.11,30.04,29.97,10,6,2,14,4,18,0.94,8,Rain,169
2013-4-5,64,57,50,54,51,48,100,80,60,30.18,30.12,30.10,10,7,0,13,4,16,0.08,7,Fog-Rain,215
2013-4-6,68,60,52,55,51,48,96,76,56,30.17,30.14,30.09,10,9,2,16,4,20,0.02,7,,176
2013-4-7,64,56,48,54,49,42,100,78,56,30.16,30.01,29.81,10,8,2,21,7,25,0.06,7,Rain,190
2013-4-8,68,57,45,42,36,33,80,55,30,30.05,29.92,29.79,10,10,10,26,15,36,0.00,1,,326
2013-4-9,77,61,44,42,39,35,76,51,25,30.11,30.07,30.02,10,10,10,15,9,17,0.00,0,,355
2013-4-10,85,66,47,53,46,42,86,56,26,30.16,30.08,30.01,10,10,10,21,8,28,0.00,0,,330
2013-4-11,75,61,47,49,45,42,80,58,35,30.04,29.93,29.82,10,10,9,17,8,24,0.00,1,,340
2013-4-12,77,60,42,53,46,40,93,69,44,29.90,29.85,29.80,10,9,7,16,4,20,0.00,1,Fog,163
2013-4-13,74,58,42,47,41,35,96,65,33,29.88,29.84,29.79,10,10,8,23,8,30,0.00,2,,314
2013-4-14,72,59,45,44,37,29,80,53,26,29.91,29.87,29.83,10,10,10,31,12,38,0.00,2,,321
2013-4-15,61,52,42,43,35,28,89,61,33,29.94,29.88,29.84,10,10,10,28,13,37,0.00,1,,309
2013-4-16,69,56,42,38,32,26,66,44,22,30.17,30.05,29.97,10,10,10,18,9,26,0.00,1,,340
2013-4-17,72,57,41,38,33,24,76,47,17,30.27,30.21,30.15,10,10,10,14,8,17,0.00,0,,2
2013-4-18,78,60,41,46,39,33,86,54,21,30.25,30.20,30.16,10,10,8,16,5,21,0.00,0,,303
2013-4-19,81,62,42,54,45,41,96,62,28,30.21,30.14,30.04,10,9,7,24,6,32,0.00,1,,312
2013-4-20,81,65,49,50,43,37,80,52,23,30.10,30.03,29.95,10,10,8,15,7,18,0.00,0,,3
2013-4-21,87,65,43,51,46,41,92,58,23,30.01,29.96,29.90,10,9,6,13,3,17,0.00,0,,182
2013-4-22,91,71,50,53,46,30,89,51,12,29.94,29.89,29.82,10,10,9,14,6,20,0.00,0,,312
2013-4-23,83,65,46,49,34,14,93,52,10,29.91,29.87,29.84,10,9,8,22,8,32,0.00,1,,119
2013-4-24,63,54,45,48,45,43,100,78,56,29.95,29.87,29.83,9,6,1,16,6,21,0.00,5,,176
2013-4-25,67,57,47,48,46,43,86,69,52,30.11,30.04,29.96,10,8,6,15,5,18,0.00,5,,240
2013-4-26,70,57,43,53,47,42,100,78,55,30.23,30.17,30.11,10,7,2,14,3,17,0.00,4,,145
2013-4-27,76,61,46,54,48,45,93,67,41,30.23,30.16,30.05,10,6,1,15,4,17,0.00,4,,156
2013-4-28,86,64,41,54,46,41,100,64,27,30.05,29.99,29.85,10,5,0,12,2,16,0.00,2,Fog,172
2013-4-29,90,71,51,53,49,46,89,57,24,29.88,29.82,29.75,10,10,7,21,6,28,0.00,1,,323
2013-4-30,88,70,51,46,40,32,77,46,15,29.85,29.80,29.77,10,10,9,17,7,23,0.00,1,,349